createdAt,value
2018-09-10T00:00:54.265Z,15.27
2018-09-10T00:03:27.617Z,15.28
2018-09-10T00:06:00.969Z,15.30
2018-09-10T00:08:34.309Z,15.30
2018-09-10T00:11:07.735Z,15.28
2018-09-10T00:13:41.073Z,15.26
2018-09-10T00:16:14.493Z,15.22
2018-09-10T00:18:47.909Z,15.21
2018-09-10T00:21:21.236Z,15.21
2018-09-10T00:23:54.631Z,15.20
2018-09-10T00:26:28.106Z,15.19
2018-09-10T00:29:01.389Z,15.18
2018-09-10T00:31:34.740Z,15.17
2018-09-10T00:34:08.081Z,15.15
2018-09-10T00:36:41.389Z,15.14
2018-09-10T00:39:15.421Z,15.08
2018-09-10T00:41:48.757Z,15.10
2018-09-10T00:44:22.090Z,15.11
2018-09-10T00:46:55.517Z,15.11
2018-09-10T00:49:28.921Z,15.14
2018-09-10T00:52:02.271Z,15.10
2018-09-10T00:54:35.560Z,15.11
2018-09-10T00:57:08.965Z,15.12
2018-09-10T00:59:42.255Z,15.13
2018-09-10T01:02:15.688Z,15.11
2018-09-10T01:04:48.971Z,15.10
2018-09-10T01:07:22.443Z,15.09
2018-09-10T01:09:55.798Z,15.07
2018-09-10T01:12:29.338Z,15.04
2018-09-10T01:15:02.815Z,15.04
2018-09-10T01:17:36.146Z,15.03
2018-09-10T01:20:09.452Z,14.99
2018-09-10T01:22:42.757Z,14.93
2018-09-10T01:25:16.380Z,14.90
2018-09-10T01:27:49.781Z,14.85
2018-09-10T01:30:23.141Z,14.87
2018-09-10T01:32:56.706Z,14.85
2018-09-10T01:35:33.226Z,14.85
2018-09-10T01:38:06.605Z,14.83
2018-09-10T01:40:39.885Z,14.83
2018-09-10T01:43:13.208Z,14.85
2018-09-10T01:45:46.602Z,14.87
2018-09-10T01:48:20.283Z,14.86
2018-09-10T01:50:53.597Z,14.85
2018-09-10T01:53:26.926Z,14.87
2018-09-10T01:56:00.425Z,14.88
2018-09-10T01:58:33.774Z,14.86
2018-09-10T02:01:07.984Z,14.86
2018-09-10T02:03:41.291Z,14.87
2018-09-10T02:06:14.897Z,14.86
2018-09-10T02:08:48.212Z,14.88
2018-09-10T02:11:21.500Z,14.87
2018-09-10T02:13:55.112Z,14.88
2018-09-10T02:16:28.470Z,14.90
2018-09-10T02:19:01.813Z,14.91
2018-09-10T02:21:35.135Z,14.93
2018-09-10T02:24:08.474Z,14.95
2018-09-10T02:26:41.829Z,14.95
2018-09-10T02:29:15.147Z,14.98
2018-09-10T02:31:48.742Z,14.98
2018-09-10T02:34:22.073Z,15.01
2018-09-10T02:36:55.373Z,15.04
2018-09-10T02:39:28.747Z,15.08
2018-09-10T02:42:02.050Z,15.10
2018-09-10T02:44:35.395Z,15.12
2018-09-10T02:47:08.724Z,15.13
2018-09-10T02:49:42.030Z,15.14
2018-09-10T02:52:15.298Z,15.18
2018-09-10T02:54:48.697Z,15.18
2018-09-10T02:57:22.001Z,15.09
2018-09-10T02:59:55.297Z,15.01
2018-09-10T03:02:28.614Z,15.02
2018-09-10T03:05:02.363Z,15.07
2018-09-10T03:07:35.961Z,15.12
2018-09-10T03:10:09.343Z,15.16
2018-09-10T03:12:42.621Z,15.19
2018-09-10T03:15:16.534Z,15.21
2018-09-10T03:17:49.899Z,15.21
2018-09-10T03:20:23.253Z,15.20
2018-09-10T03:22:56.557Z,15.18
2018-09-10T03:25:29.932Z,15.14
2018-09-10T03:28:03.225Z,15.12
2018-09-10T03:30:36.597Z,15.11
2018-09-10T03:33:09.916Z,15.11
2018-09-10T03:35:43.225Z,15.12
2018-09-10T03:38:16.722Z,15.11
2018-09-10T03:40:50.117Z,15.10
2018-09-10T03:43:23.461Z,15.12
2018-09-10T03:45:56.794Z,15.08
2018-09-10T03:48:30.179Z,15.09
2018-09-10T03:51:04.370Z,15.10
2018-09-10T03:53:37.709Z,15.13
2018-09-10T03:56:11.009Z,15.17
2018-09-10T03:58:44.296Z,15.17
2018-09-10T04:01:17.616Z,15.20
2018-09-10T04:03:51.095Z,15.22
2018-09-10T04:06:24.431Z,15.24
2018-09-10T04:08:57.774Z,15.24
2018-09-10T04:11:31.126Z,15.22
2018-09-10T04:14:04.428Z,15.27
2018-09-10T04:16:37.806Z,15.29
2018-09-10T04:19:11.135Z,15.34
2018-09-10T04:21:44.449Z,15.35
2018-09-10T04:24:17.914Z,15.32
2018-09-10T04:26:51.314Z,15.37
2018-09-10T04:29:24.603Z,15.38
2018-09-10T04:31:58.094Z,15.38
2018-09-10T04:34:31.594Z,15.37
2018-09-10T04:37:04.955Z,15.36
2018-09-10T04:39:38.266Z,15.34
2018-09-10T04:42:11.596Z,15.34
2018-09-10T04:44:45.213Z,15.33
2018-09-10T04:47:18.621Z,15.33
2018-09-10T04:49:52.036Z,15.26
2018-09-10T04:52:25.337Z,15.22
2018-09-10T04:54:58.796Z,15.23
2018-09-10T04:57:32.221Z,15.24
2018-09-10T05:00:05.821Z,15.25
2018-09-10T05:02:39.229Z,15.26
2018-09-10T05:05:12.490Z,15.27
2018-09-10T05:07:45.945Z,15.27
2018-09-10T05:10:19.300Z,15.29
2018-09-10T05:12:52.648Z,15.30
2018-09-10T05:15:26.003Z,15.35
2018-09-10T05:17:59.666Z,15.40
2018-09-10T05:20:33.057Z,15.48
2018-09-10T05:23:06.647Z,15.56
2018-09-10T05:25:39.969Z,15.62
2018-09-10T05:28:13.308Z,15.70
2018-09-10T05:30:46.782Z,15.79
2018-09-10T05:33:20.157Z,15.87
2018-09-10T05:35:53.505Z,15.98
2018-09-10T05:38:26.829Z,16.06
2018-09-10T05:41:00.228Z,16.16
2018-09-10T05:43:33.558Z,16.26
2018-09-10T05:46:06.901Z,16.33
2018-09-10T05:48:40.212Z,16.42
2018-09-10T05:51:13.569Z,16.49
2018-09-10T05:53:46.924Z,16.58
2018-09-10T05:56:20.281Z,16.65
2018-09-10T05:58:53.720Z,16.68
2018-09-10T06:01:27.086Z,16.76
2018-09-10T06:04:00.397Z,16.85
2018-09-10T06:06:33.717Z,16.94
2018-09-10T06:09:07.669Z,17.04
2018-09-10T06:11:40.965Z,17.13
2018-09-10T06:14:14.342Z,17.18
2018-09-10T06:16:47.820Z,17.27
2018-09-10T06:19:21.031Z,17.35
2018-09-10T06:21:54.365Z,17.47
2018-09-10T06:24:27.689Z,17.51
2018-09-10T06:27:01.058Z,17.65
2018-09-10T06:29:34.349Z,17.67
2018-09-10T06:32:07.965Z,17.78
2018-09-10T06:34:41.240Z,17.86
2018-09-10T06:37:14.884Z,17.91
2018-09-10T06:39:48.153Z,18.02
2018-09-10T06:42:21.496Z,18.05
2018-09-10T06:44:54.825Z,18.06
2018-09-10T06:47:28.231Z,18.13
2018-09-10T06:50:01.575Z,18.18
2018-09-10T06:52:34.933Z,18.27
2018-09-10T06:55:08.285Z,18.32
2018-09-10T06:57:41.604Z,18.46
2018-09-10T07:00:15.090Z,18.52
2018-09-10T07:02:48.317Z,18.66
2018-09-10T07:05:21.636Z,18.74
2018-09-10T07:07:55.007Z,18.86
2018-09-10T07:10:28.396Z,19.02
2018-09-10T07:13:01.752Z,19.15
2018-09-10T07:15:35.122Z,19.24
2018-09-10T07:18:08.506Z,19.35
2018-09-10T07:20:41.832Z,19.44
2018-09-10T07:23:15.357Z,19.51
2018-09-10T07:25:48.745Z,19.58
2018-09-10T07:28:22.116Z,19.57
2018-09-10T07:30:55.466Z,19.59
2018-09-10T07:33:28.974Z,19.61
2018-09-10T07:36:02.312Z,19.61
2018-09-10T07:38:35.648Z,19.61
2018-09-10T07:41:09.057Z,19.57
2018-09-10T07:43:42.453Z,19.55
2018-09-10T07:46:16.338Z,19.56
2018-09-10T07:48:49.709Z,19.60
2018-09-10T07:51:23.525Z,19.61
2018-09-10T07:53:56.878Z,19.62
2018-09-10T07:56:30.219Z,19.60
2018-09-10T07:59:03.570Z,19.62
2018-09-10T08:01:36.949Z,19.65
2018-09-10T08:04:10.294Z,19.72
2018-09-10T08:06:43.643Z,19.81
2018-09-10T08:09:17.259Z,19.94
2018-09-10T08:11:50.505Z,20.04
2018-09-10T08:14:23.867Z,20.19
2018-09-10T08:16:57.338Z,20.27
2018-09-10T08:19:30.946Z,20.32
2018-09-10T08:22:04.309Z,20.43
2018-09-10T08:24:37.629Z,20.53
2018-09-10T08:27:10.893Z,20.59
2018-09-10T08:29:44.264Z,20.62
2018-09-10T08:32:17.577Z,20.63
2018-09-10T08:34:50.873Z,20.47
2018-09-10T08:37:24.598Z,20.31
2018-09-10T08:39:57.944Z,20.30
2018-09-10T08:42:31.253Z,20.31
2018-09-10T08:45:04.798Z,20.25
2018-09-10T08:47:38.111Z,20.24
2018-09-10T08:50:11.421Z,20.19
2018-09-10T08:52:44.862Z,20.24
2018-09-10T08:55:21.079Z,20.30
2018-09-10T08:57:54.275Z,20.28
2018-09-10T09:00:27.943Z,20.33
2018-09-10T09:03:01.269Z,20.37
2018-09-10T09:05:34.630Z,20.40
2018-09-10T09:08:08.001Z,20.38
2018-09-10T09:10:41.294Z,20.41
2018-09-10T09:13:14.817Z,20.47
2018-09-10T09:15:48.272Z,20.64
2018-09-10T09:18:21.597Z,20.80
2018-09-10T09:20:54.953Z,21.02
2018-09-10T09:23:28.505Z,21.22
2018-09-10T09:26:01.774Z,21.50
2018-09-10T09:28:35.117Z,21.60
2018-09-10T09:31:08.603Z,21.55
2018-09-10T09:33:42.074Z,21.62
2018-09-10T09:36:20.833Z,21.70
2018-09-10T09:38:59.490Z,21.76
2018-09-10T09:41:38.043Z,21.89
2018-09-10T09:45:19.202Z,21.92
2018-09-10T09:47:52.635Z,21.93
2018-09-10T09:50:25.973Z,21.93
2018-09-10T09:52:59.309Z,21.90
2018-09-10T09:55:32.641Z,21.97
2018-09-10T09:58:06.011Z,22.15
2018-09-10T10:00:44.582Z,22.28
2018-09-10T10:03:22.874Z,22.43
2018-09-10T10:05:56.340Z,22.60
2018-09-10T10:08:29.653Z,22.84
2018-09-10T10:11:03.443Z,23.01
2018-09-10T10:13:37.298Z,23.01
2018-09-10T10:16:10.600Z,23.02
2018-09-10T10:18:43.897Z,23.01
2018-09-10T10:21:17.207Z,22.97
2018-09-10T10:23:50.657Z,23.16
2018-09-10T10:26:24.028Z,23.33
2018-09-10T10:28:57.465Z,23.30
2018-09-10T10:31:31.052Z,23.54
2018-09-10T10:34:04.740Z,23.48
2018-09-10T10:36:38.455Z,23.56
2018-09-10T10:39:11.926Z,23.55
2018-09-10T10:41:45.214Z,23.53
2018-09-10T10:44:19.132Z,23.59
2018-09-10T10:46:52.428Z,23.69
2018-09-10T10:49:26.221Z,23.55
2018-09-10T10:51:59.753Z,23.59
2018-09-10T10:54:33.118Z,23.66
2018-09-10T10:57:07.213Z,23.71
2018-09-10T10:59:40.497Z,23.75
2018-09-10T11:02:13.821Z,23.98
2018-09-10T11:04:47.190Z,24.26
2018-09-10T11:07:20.505Z,24.65
2018-09-10T11:09:53.842Z,24.65
2018-09-10T11:12:27.133Z,24.52
2018-09-10T11:15:00.923Z,24.41
2018-09-10T11:17:34.249Z,24.26
2018-09-10T11:20:07.844Z,24.15
2018-09-10T11:22:41.165Z,24.12
2018-09-10T11:25:14.471Z,23.99
2018-09-10T11:27:47.797Z,24.07
2018-09-10T11:30:21.168Z,24.15
2018-09-10T11:32:54.576Z,24.36
2018-09-10T11:35:27.857Z,24.38
2018-09-10T11:38:01.268Z,24.45
2018-09-10T11:40:34.558Z,24.47
2018-09-10T11:43:07.904Z,24.51
2018-09-10T11:45:41.214Z,24.46
2018-09-10T11:48:14.548Z,24.59
2018-09-10T11:50:47.838Z,24.60
2018-09-10T11:53:21.157Z,24.67
2018-09-10T11:55:54.846Z,24.60
2018-09-10T11:58:28.156Z,24.58
2018-09-10T12:01:01.446Z,24.67
2018-09-10T12:03:34.768Z,24.69
2018-09-10T12:06:08.090Z,24.82
2018-09-10T12:08:41.428Z,24.93
2018-09-10T12:11:14.720Z,24.95
2018-09-10T12:13:48.062Z,25.05
2018-09-10T12:16:21.356Z,25.16
2018-09-10T12:18:54.668Z,25.06
2018-09-10T12:21:28.002Z,25.02
2018-09-10T12:24:01.266Z,24.99
2018-09-10T12:26:34.596Z,24.91
2018-09-10T12:29:07.888Z,24.78
2018-09-10T12:31:41.169Z,24.87
2018-09-10T12:34:14.460Z,24.86
2018-09-10T12:36:47.768Z,24.84
2018-09-10T12:39:21.164Z,24.86
2018-09-10T12:41:54.482Z,24.89
2018-09-10T12:44:27.753Z,24.91
2018-09-10T12:47:01.057Z,24.85
2018-09-10T12:49:34.334Z,24.96
2018-09-10T12:52:07.709Z,24.79
2018-09-10T12:54:40.992Z,24.70
2018-09-10T12:57:14.320Z,24.74
2018-09-10T12:59:47.752Z,24.86
2018-09-10T13:02:21.081Z,24.83
2018-09-10T13:04:54.360Z,24.71
2018-09-10T13:07:27.656Z,24.55
2018-09-10T13:10:00.976Z,24.46
2018-09-10T13:12:34.280Z,24.40
2018-09-10T13:15:07.629Z,24.44
2018-09-10T13:17:40.936Z,24.39
2018-09-10T13:20:14.243Z,24.46
2018-09-10T13:22:47.556Z,24.51
2018-09-10T13:25:20.855Z,24.54
2018-09-10T13:27:54.196Z,24.54
2018-09-10T13:30:27.520Z,24.65
2018-09-10T13:33:00.837Z,24.65
2018-09-10T13:35:34.129Z,24.69
2018-09-10T13:38:07.484Z,24.64
2018-09-10T13:40:40.864Z,24.64
2018-09-10T13:43:14.300Z,24.67
2018-09-10T13:45:47.572Z,24.65
2018-09-10T13:48:21.076Z,24.74
2018-09-10T13:50:54.368Z,24.87
2018-09-10T13:53:31.739Z,24.85
2018-09-10T13:56:08.292Z,24.83
2018-09-10T13:58:41.692Z,24.79
2018-09-10T14:01:15.060Z,24.80
2018-09-10T14:03:48.381Z,24.80
2018-09-10T14:06:22.053Z,24.92
2018-09-10T14:08:55.377Z,25.03
2018-09-10T14:11:28.717Z,25.07
2018-09-10T14:14:19.146Z,25.06
2018-09-10T14:17:00.523Z,24.88
2018-09-10T14:19:33.877Z,24.74
2018-09-10T14:22:07.233Z,24.78
2018-09-10T14:24:40.561Z,24.62
2018-09-10T14:27:13.883Z,24.62
2018-09-10T14:29:47.194Z,24.62
2018-09-10T14:32:20.494Z,24.59
2018-09-10T14:34:53.812Z,24.57
2018-09-10T14:37:27.134Z,24.48
2018-09-10T14:40:00.456Z,24.40
2018-09-10T14:42:33.750Z,24.34
2018-09-10T14:45:07.113Z,24.24
2018-09-10T14:47:40.584Z,24.28
2018-09-10T14:50:14.058Z,24.25
2018-09-10T14:52:47.368Z,24.20
2018-09-10T14:55:20.690Z,24.19
2018-09-10T14:57:54.040Z,24.22
2018-09-10T15:00:28.365Z,24.05
2018-09-10T15:03:01.691Z,24.09
2018-09-10T15:05:35.000Z,24.05
2018-09-10T15:08:08.321Z,23.97
2018-09-10T15:10:41.660Z,24.00
2018-09-10T15:13:14.966Z,23.95
2018-09-10T15:15:48.318Z,23.85
2018-09-10T15:18:21.726Z,23.78
2018-09-10T15:20:55.004Z,23.72
2018-09-10T15:23:28.327Z,23.73
2018-09-10T15:26:01.956Z,23.63
2018-09-10T15:28:35.182Z,23.54
2018-09-10T15:31:09.440Z,23.55
2018-09-10T15:33:42.729Z,23.64
2018-09-10T15:36:16.076Z,23.54
2018-09-10T15:38:49.356Z,23.52
2018-09-10T15:41:22.664Z,23.52
2018-09-10T15:43:55.952Z,23.59
2018-09-10T15:46:29.333Z,23.54
2018-09-10T15:49:02.612Z,23.51
2018-09-10T15:51:35.931Z,23.52
2018-09-10T15:54:09.264Z,23.44
2018-09-10T15:56:42.886Z,23.34
2018-09-10T15:59:22.428Z,23.40
2018-09-10T16:01:56.165Z,23.38
2018-09-10T16:04:29.458Z,23.28
2018-09-10T16:07:02.816Z,23.30
2018-09-10T16:09:36.979Z,23.31
2018-09-10T16:12:10.314Z,23.25
2018-09-10T16:14:43.896Z,23.28
2018-09-10T16:17:17.242Z,23.26
2018-09-10T16:19:50.568Z,23.32
2018-09-10T16:22:23.845Z,23.31
2018-09-10T16:24:57.165Z,23.34
2018-09-10T16:27:30.475Z,23.29
2018-09-10T16:30:03.834Z,23.29
2018-09-10T16:32:37.281Z,23.25
2018-09-10T16:35:10.745Z,23.24
2018-09-10T16:37:44.077Z,23.26
2018-09-10T16:40:17.401Z,23.10
2018-09-10T16:42:51.752Z,23.06
2018-09-10T16:45:25.048Z,23.08
2018-09-10T16:47:58.332Z,23.05
2018-09-10T16:50:31.789Z,23.01
2018-09-10T16:53:05.250Z,23.00
2018-09-10T16:55:39.865Z,22.89
2018-09-10T16:58:13.203Z,22.89
2018-09-10T17:00:46.539Z,22.91
2018-09-10T17:03:19.812Z,22.78
2018-09-10T17:05:53.665Z,22.82
2018-09-10T17:08:27.068Z,22.80
2018-09-10T17:11:00.984Z,22.77
2018-09-10T17:13:34.277Z,22.76
2018-09-10T17:16:08.224Z,22.76
2018-09-10T17:18:41.632Z,22.66
2018-09-10T17:21:15.182Z,22.66
2018-09-10T17:23:49.087Z,22.66
2018-09-10T17:26:22.796Z,22.61
2018-09-10T17:28:56.118Z,22.60
2018-09-10T17:31:29.959Z,22.62
2018-09-10T17:34:03.620Z,22.61
2018-09-10T17:36:38.725Z,22.58
2018-09-10T17:39:12.352Z,22.51
2018-09-10T17:41:51.008Z,22.48
2018-09-10T17:44:25.904Z,22.47
2018-09-10T17:46:59.364Z,22.43
2018-09-10T17:49:33.054Z,22.39
2018-09-10T17:52:06.559Z,22.36
2018-09-10T17:54:39.924Z,22.32
2018-09-10T17:57:13.233Z,22.26
2018-09-10T17:59:46.524Z,22.17
2018-09-10T18:02:20.889Z,22.16
2018-09-10T18:04:54.351Z,22.18
2018-09-10T18:07:27.765Z,22.15
2018-09-10T18:10:01.090Z,22.10
2018-09-10T18:12:34.395Z,22.07
2018-09-10T18:15:08.341Z,22.07
2018-09-10T18:17:41.640Z,22.05
2018-09-10T18:20:14.967Z,22.02
2018-09-10T18:22:48.273Z,22.02
2018-09-10T18:25:21.621Z,21.99
2018-09-10T18:27:56.003Z,21.97
2018-09-10T18:30:29.295Z,21.97
2018-09-10T18:33:02.850Z,21.97
2018-09-10T18:35:36.185Z,21.91
2018-09-10T18:38:09.553Z,21.88
2018-09-10T18:40:42.838Z,21.83
2018-09-10T18:43:16.175Z,21.78
2018-09-10T18:45:49.501Z,21.78
2018-09-10T18:48:22.814Z,21.79
2018-09-10T18:50:56.340Z,21.74
2018-09-10T18:53:30.289Z,21.68
2018-09-10T18:56:08.854Z,21.60
2018-09-10T18:58:42.515Z,21.57
2018-09-10T19:01:17.509Z,21.54
2018-09-10T19:03:50.725Z,21.47
2018-09-10T19:06:24.139Z,21.42
2018-09-10T19:08:57.482Z,21.43
2018-09-10T19:11:31.561Z,21.41
2018-09-10T19:14:04.904Z,21.37
2018-09-10T19:16:38.907Z,21.33
2018-09-10T19:19:15.999Z,21.30
2018-09-10T19:21:53.468Z,21.25
2018-09-10T19:24:26.787Z,21.20
2018-09-10T19:27:00.146Z,21.17
2018-09-10T19:29:34.456Z,21.12
2018-09-10T19:32:07.835Z,21.04
2018-09-10T19:34:41.218Z,21.01
2018-09-10T19:37:14.498Z,20.98
2018-09-10T19:39:49.884Z,20.94
2018-09-10T19:42:23.181Z,20.89
2018-09-10T19:44:56.521Z,20.85
2018-09-10T19:47:29.861Z,20.82
2018-09-10T19:50:03.393Z,20.75
2018-09-10T19:52:36.718Z,20.69
2018-09-10T19:55:10.034Z,20.61
2018-09-10T19:57:43.986Z,20.55
2018-09-10T20:00:17.411Z,20.52
2018-09-10T20:02:50.856Z,20.48
2018-09-10T20:05:24.720Z,20.47
2018-09-10T20:07:58.072Z,20.40
2018-09-10T20:10:31.410Z,20.37
2018-09-10T20:13:04.697Z,20.36
2018-09-10T20:15:38.020Z,20.34
2018-09-10T20:18:11.365Z,20.32
2018-09-10T20:20:44.721Z,20.31
2018-09-10T20:23:18.004Z,20.30
2018-09-10T20:25:51.348Z,20.26
2018-09-10T20:28:24.768Z,20.23
2018-09-10T20:30:58.221Z,20.21
2018-09-10T20:33:35.795Z,20.17
2018-09-10T20:36:11.121Z,20.14
2018-09-10T20:38:44.417Z,20.11
2018-09-10T20:41:18.394Z,20.05
2018-09-10T20:43:51.672Z,19.99
2018-09-10T20:46:25.935Z,19.94
2018-09-10T20:49:00.078Z,19.87
2018-09-10T20:51:33.402Z,19.78
2018-09-10T20:54:06.723Z,19.76
2018-09-10T20:56:41.088Z,19.71
2018-09-10T20:59:14.688Z,19.68
2018-09-10T21:01:49.390Z,19.66
2018-09-10T21:04:22.668Z,19.66
2018-09-10T21:06:56.067Z,19.66
2018-09-10T21:09:29.422Z,19.61
2018-09-10T21:12:02.736Z,19.58
2018-09-10T21:14:36.660Z,19.53
2018-09-10T21:17:10.145Z,19.52
2018-09-10T21:19:44.268Z,19.50
2018-09-10T21:22:17.589Z,19.50
2018-09-10T21:24:50.897Z,19.49
2018-09-10T21:27:24.738Z,19.47
2018-09-10T21:29:58.083Z,19.46
2018-09-10T21:32:31.410Z,19.45
2018-09-10T21:35:05.437Z,19.42
2018-09-10T21:37:38.835Z,19.34
2018-09-10T21:40:12.131Z,19.33
2018-09-10T21:42:45.431Z,19.31
2018-09-10T21:45:19.323Z,19.32
2018-09-10T21:47:52.664Z,19.31
2018-09-10T21:50:26.005Z,19.28
2018-09-10T21:52:59.603Z,19.26
2018-09-10T21:55:32.910Z,19.22
2018-09-10T21:58:08.142Z,19.21
2018-09-10T22:00:46.597Z,19.14
2018-09-10T22:03:21.610Z,19.12
2018-09-10T22:05:55.357Z,19.11
2018-09-10T22:08:28.703Z,19.09
2018-09-10T22:11:02.017Z,19.10
2018-09-10T22:13:35.357Z,19.08
2018-09-10T22:16:08.718Z,19.08
2018-09-10T22:18:42.058Z,19.07
2018-09-10T22:21:15.381Z,19.02
2018-09-10T22:23:48.733Z,19.01
2018-09-10T22:26:22.042Z,19.01
2018-09-10T22:28:55.445Z,18.99
2018-09-10T22:31:28.774Z,18.99
2018-09-10T22:34:03.786Z,19.00
2018-09-10T22:36:37.081Z,18.99
2018-09-10T22:39:12.712Z,18.97
2018-09-10T22:41:47.502Z,18.97
2018-09-10T22:44:20.920Z,18.95
2018-09-10T22:46:54.157Z,18.93
2018-09-10T22:49:27.467Z,18.92
2018-09-10T22:52:01.424Z,18.90
2018-09-10T22:54:34.740Z,18.88
2018-09-10T22:57:08.049Z,18.84
2018-09-10T22:59:41.679Z,18.83
2018-09-10T23:02:14.976Z,18.78
2018-09-10T23:04:49.233Z,18.78
2018-09-10T23:07:22.560Z,18.77
2018-09-10T23:09:55.877Z,18.77
2018-09-10T23:12:30.269Z,18.78
2018-09-10T23:15:03.633Z,18.77
2018-09-10T23:17:36.962Z,18.77
2018-09-10T23:20:10.329Z,18.78
2018-09-10T23:22:44.500Z,18.77
2018-09-10T23:25:17.793Z,18.78
2018-09-10T23:27:51.138Z,18.77
2018-09-10T23:30:24.440Z,18.76
2018-09-10T23:32:57.757Z,18.75
2018-09-10T23:35:31.032Z,18.72
2018-09-10T23:38:04.350Z,18.72
2018-09-10T23:40:37.698Z,18.72
2018-09-10T23:43:11.037Z,18.72
2018-09-10T23:45:44.730Z,18.69
2018-09-10T23:48:18.197Z,18.64
2018-09-10T23:50:51.492Z,18.62
2018-09-10T23:53:24.818Z,18.58
2018-09-10T23:55:58.131Z,18.53
2018-09-10T23:58:31.475Z,18.47
